createdAt,value
2023-03-11T00:00:48.581Z,4.80
2023-03-11T00:02:53.051Z,6.78
2023-03-11T00:04:54.469Z,6.28
2023-03-11T00:06:55.942Z,4.68
2023-03-11T00:08:57.362Z,6.05
2023-03-11T00:11:00.540Z,5.22
2023-03-11T00:13:03.244Z,5.03
2023-03-11T00:15:05.140Z,5.70
2023-03-11T00:17:06.589Z,5.18
2023-03-11T00:19:09.281Z,4.50
2023-03-11T00:21:17.983Z,5.50
2023-03-11T00:23:19.550Z,4.18
2023-03-11T00:25:23.150Z,4.25
2023-03-11T00:27:24.705Z,4.40
2023-03-11T00:29:26.146Z,2.88
2023-03-11T00:31:27.696Z,3.72
2023-03-11T00:33:29.232Z,3.55
2023-03-11T00:35:32.716Z,3.42
2023-03-11T00:37:34.483Z,3.58
2023-03-11T00:39:35.898Z,3.35
2023-03-11T00:41:37.514Z,3.58
2023-03-11T00:43:38.896Z,2.95
2023-03-11T00:45:40.399Z,4.25
2023-03-11T00:47:42.006Z,3.10
2023-03-11T00:49:43.513Z,3.20
2023-03-11T00:51:44.950Z,2.95
2023-03-11T00:53:46.386Z,4.00
2023-03-11T00:55:47.890Z,3.22
2023-03-11T00:57:52.673Z,3.92
2023-03-11T00:59:54.452Z,3.88
2023-03-11T01:01:55.896Z,3.53
2023-03-11T01:03:57.301Z,3.35
2023-03-11T01:05:58.704Z,3.83
2023-03-11T01:08:00.906Z,4.55
2023-03-11T01:10:02.412Z,5.20
2023-03-11T01:12:05.519Z,4.35
2023-03-11T01:14:06.970Z,3.42
2023-03-11T01:16:09.318Z,4.45
2023-03-11T01:18:11.010Z,3.92
2023-03-11T01:20:12.945Z,3.72
2023-03-11T01:22:14.905Z,5.07
2023-03-11T01:24:16.356Z,4.93
2023-03-11T01:26:17.850Z,3.83
2023-03-11T01:28:19.307Z,5.28
2023-03-11T01:30:23.834Z,5.30
2023-03-11T01:32:25.374Z,3.78
2023-03-11T01:34:26.812Z,4.88
2023-03-11T01:36:28.244Z,5.22
2023-03-11T01:38:29.695Z,4.65
2023-03-11T01:41:00.884Z,4.68
2023-03-11T01:43:04.241Z,4.28
2023-03-11T01:45:44.168Z,5.80
2023-03-11T01:47:45.632Z,5.05
2023-03-11T01:49:48.807Z,5.07
2023-03-11T01:51:54.194Z,3.33
2023-03-11T01:53:57.218Z,4.88
2023-03-11T01:55:58.805Z,7.00
2023-03-11T01:58:05.783Z,6.55
2023-03-11T02:00:10.475Z,5.07
2023-03-11T02:02:19.682Z,5.72
2023-03-11T02:04:21.608Z,5.70
2023-03-11T02:06:24.405Z,4.38
2023-03-11T02:08:25.988Z,4.35
2023-03-11T02:10:27.801Z,4.53
2023-03-11T02:12:34.472Z,4.63
2023-03-11T02:14:37.641Z,6.43
2023-03-11T02:16:39.083Z,3.60
2023-03-11T02:18:42.593Z,4.15
2023-03-11T02:20:55.449Z,5.50
2023-03-11T02:22:57.668Z,4.15
2023-03-11T02:25:05.328Z,5.35
2023-03-11T02:27:12.832Z,6.10
2023-03-11T02:29:14.747Z,4.82
2023-03-11T02:31:16.904Z,6.22
2023-03-11T02:33:18.773Z,6.20
2023-03-11T02:35:20.765Z,5.72
2023-03-11T02:37:22.165Z,5.20
2023-03-11T02:39:37.960Z,8.75
2023-03-11T02:41:44.355Z,4.78
2023-03-11T02:43:46.770Z,10.07
2023-03-11T02:45:48.567Z,7.47
2023-03-11T02:47:51.870Z,5.95
2023-03-11T02:49:56.305Z,8.48
2023-03-11T02:51:57.762Z,4.82
2023-03-11T02:54:03.936Z,6.57
2023-03-11T02:56:05.627Z,5.65
2023-03-11T02:58:07.443Z,7.25
2023-03-11T03:00:18.993Z,4.43
2023-03-11T03:02:20.664Z,5.47
2023-03-11T03:04:22.421Z,8.20
2023-03-11T03:06:25.086Z,3.42
2023-03-11T03:08:26.623Z,5.38
2023-03-11T03:10:28.201Z,4.35
2023-03-11T03:12:35.838Z,3.83
2023-03-11T03:14:37.226Z,8.00
2023-03-11T03:16:38.738Z,4.63
2023-03-11T03:18:40.491Z,5.95
2023-03-11T03:20:41.944Z,4.50
2023-03-11T03:22:43.647Z,4.85
2023-03-11T03:24:45.182Z,5.13
2023-03-11T03:26:46.653Z,4.88
2023-03-11T03:28:48.312Z,5.78
2023-03-11T03:30:49.721Z,4.75
2023-03-11T03:32:51.200Z,6.72
2023-03-11T03:34:58.212Z,5.10
2023-03-11T03:36:59.665Z,6.85
2023-03-11T03:39:01.529Z,7.72
2023-03-11T03:41:03.632Z,6.78
2023-03-11T03:43:05.748Z,7.20
2023-03-11T03:45:08.592Z,7.00
2023-03-11T03:47:10.104Z,6.22
2023-03-11T03:49:11.686Z,5.05
2023-03-11T03:51:14.456Z,9.00
2023-03-11T03:53:15.845Z,6.85
2023-03-11T03:55:17.405Z,7.50
2023-03-11T03:57:18.924Z,6.53
2023-03-11T03:59:20.310Z,5.45
2023-03-11T04:01:22.004Z,6.10
2023-03-11T04:03:23.845Z,7.22
2023-03-11T04:05:26.742Z,7.88
2023-03-11T04:07:28.224Z,7.13
2023-03-11T04:09:29.685Z,6.03
2023-03-11T04:11:32.312Z,7.43
2023-03-11T04:13:33.759Z,8.07
2023-03-11T04:15:37.230Z,7.18
2023-03-11T04:17:58.894Z,9.75
2023-03-11T04:20:00.335Z,6.82
2023-03-11T04:22:01.742Z,7.28
2023-03-11T04:24:03.313Z,6.78
2023-03-11T04:26:04.813Z,3.95
2023-03-11T04:28:06.284Z,7.93
2023-03-11T04:30:08.838Z,6.00
2023-03-11T04:32:10.285Z,6.75
2023-03-11T04:34:11.759Z,7.40
2023-03-11T04:36:13.206Z,8.30
2023-03-11T04:38:19.455Z,4.07
2023-03-11T04:40:20.991Z,9.25
2023-03-11T04:42:22.541Z,7.75
2023-03-11T04:44:24.045Z,5.97
2023-03-11T04:46:25.510Z,7.20
2023-03-11T04:48:27.591Z,10.23
2023-03-11T04:50:29.025Z,7.00
2023-03-11T04:52:30.530Z,7.53
2023-03-11T04:54:32.025Z,7.15
2023-03-11T04:56:33.869Z,6.53
2023-03-11T04:58:35.276Z,6.50
2023-03-11T05:00:36.722Z,5.50
2023-03-11T05:02:39.749Z,6.57
2023-03-11T05:04:41.243Z,6.80
2023-03-11T05:06:42.711Z,7.30
2023-03-11T05:08:44.270Z,4.85
2023-03-11T05:10:45.790Z,8.13
2023-03-11T05:12:47.227Z,6.38
2023-03-11T05:14:48.682Z,9.13
2023-03-11T05:16:50.111Z,8.27
2023-03-11T05:18:51.594Z,8.05
2023-03-11T05:20:53.470Z,7.72
2023-03-11T05:22:54.927Z,9.43
2023-03-11T05:24:56.347Z,3.83
2023-03-11T05:26:58.376Z,6.72
2023-03-11T05:28:59.767Z,9.52
2023-03-11T05:31:01.294Z,5.65
2023-03-11T05:33:02.985Z,8.07
2023-03-11T05:35:04.821Z,4.07
2023-03-11T05:37:06.407Z,5.40
2023-03-11T05:39:08.383Z,5.97
2023-03-11T05:41:09.830Z,4.45
2023-03-11T05:43:11.280Z,6.15
2023-03-11T05:45:13.511Z,6.57
2023-03-11T05:47:16.872Z,6.72
2023-03-11T05:49:18.332Z,5.18
2023-03-11T05:51:19.834Z,6.80
2023-03-11T05:53:21.235Z,6.53
2023-03-11T05:55:22.699Z,5.45
2023-03-11T05:57:24.303Z,5.45
2023-03-11T05:59:25.794Z,9.65
2023-03-11T06:01:27.251Z,8.20
2023-03-11T06:03:28.670Z,10.20
2023-03-11T06:05:30.145Z,8.05
2023-03-11T06:07:31.614Z,6.70
2023-03-11T06:09:36.801Z,6.00
2023-03-11T06:11:38.194Z,4.35
2023-03-11T06:13:39.760Z,7.20
2023-03-11T06:15:41.206Z,7.75
2023-03-11T06:17:42.683Z,8.48
2023-03-11T06:19:44.137Z,8.85
2023-03-11T06:21:45.525Z,8.45
2023-03-11T06:23:47.416Z,3.10
2023-03-11T06:26:04.207Z,6.03
2023-03-11T06:28:05.946Z,5.03
2023-03-11T06:30:08.034Z,5.40
2023-03-11T06:32:09.726Z,6.47
2023-03-11T06:34:12.052Z,6.68
2023-03-11T06:36:15.427Z,5.97
2023-03-11T06:38:16.854Z,6.68
2023-03-11T06:40:18.733Z,6.15
2023-03-11T06:42:20.796Z,4.50
2023-03-11T06:44:22.186Z,8.30
2023-03-11T06:46:23.916Z,7.18
2023-03-11T06:48:26.337Z,6.28
2023-03-11T06:50:28.824Z,4.68
2023-03-11T06:52:30.253Z,7.93
2023-03-11T06:54:31.751Z,5.45
2023-03-11T06:56:33.158Z,9.32
2023-03-11T06:58:36.878Z,6.53
2023-03-11T07:00:38.297Z,8.75
2023-03-11T07:02:39.700Z,6.90
2023-03-11T07:04:41.145Z,6.35
2023-03-11T07:06:43.419Z,9.15
2023-03-11T07:08:47.489Z,7.85
2023-03-11T07:11:03.658Z,8.93
2023-03-11T07:13:05.077Z,4.63
2023-03-11T07:15:07.173Z,11.27
2023-03-11T07:17:08.737Z,4.93
2023-03-11T07:19:10.782Z,4.68
2023-03-11T07:21:15.371Z,7.03
2023-03-11T07:23:16.780Z,5.32
2023-03-11T07:25:18.300Z,3.92
2023-03-11T07:27:19.824Z,4.93
2023-03-11T07:29:21.257Z,4.88
2023-03-11T07:31:28.165Z,3.65
2023-03-11T07:33:29.580Z,6.78
2023-03-11T07:35:31.220Z,6.43
2023-03-11T07:37:32.629Z,6.10
2023-03-11T07:39:34.077Z,7.88
2023-03-11T07:41:36.535Z,6.35
2023-03-11T07:43:38.797Z,6.30
2023-03-11T07:45:40.311Z,5.43
2023-03-11T07:47:41.753Z,8.65
2023-03-11T07:49:43.153Z,6.50
2023-03-11T07:51:44.817Z,6.93
2023-03-11T07:53:47.307Z,5.38
2023-03-11T07:55:48.694Z,5.65
2023-03-11T07:57:51.632Z,3.47
2023-03-11T07:59:53.079Z,4.95
2023-03-11T08:01:54.511Z,5.90
2023-03-11T08:03:56.974Z,4.47
2023-03-11T08:05:58.621Z,5.95
2023-03-11T08:08:00.053Z,4.45
2023-03-11T08:10:01.750Z,4.95
2023-03-11T08:12:03.312Z,6.07
2023-03-11T08:14:05.453Z,5.65
2023-03-11T08:16:08.782Z,5.82
2023-03-11T08:18:11.142Z,5.07
2023-03-11T08:20:12.920Z,5.35
2023-03-11T08:22:14.362Z,4.05
2023-03-11T08:24:16.130Z,6.78
2023-03-11T08:26:20.336Z,8.63
2023-03-11T08:28:21.760Z,6.30
2023-03-11T08:30:23.585Z,3.85
2023-03-11T08:32:25.124Z,4.80
2023-03-11T08:34:27.603Z,5.22
2023-03-11T08:36:29.999Z,8.40
2023-03-11T08:38:31.429Z,5.60
2023-03-11T08:40:32.884Z,4.80
2023-03-11T08:42:36.210Z,3.75
2023-03-11T08:44:39.096Z,8.52
2023-03-11T08:46:40.717Z,5.18
2023-03-11T08:48:42.185Z,6.97
2023-03-11T08:50:53.899Z,4.47
2023-03-11T08:52:56.431Z,7.22
2023-03-11T08:54:57.898Z,5.10
2023-03-11T08:57:02.925Z,3.97
2023-03-11T08:59:04.376Z,5.07
2023-03-11T09:01:07.254Z,8.25
2023-03-11T09:03:08.696Z,9.27
2023-03-11T09:05:10.624Z,5.78
2023-03-11T09:07:14.172Z,5.50
2023-03-11T09:09:24.396Z,5.30
2023-03-11T09:11:26.191Z,5.10
2023-03-11T09:13:28.056Z,6.82
2023-03-11T09:15:29.703Z,3.08
2023-03-11T09:17:31.208Z,2.25
2023-03-11T09:19:32.613Z,5.20
2023-03-11T09:21:37.974Z,3.83
2023-03-11T09:23:42.779Z,7.22
2023-03-11T09:25:45.329Z,5.22
2023-03-11T09:27:47.109Z,2.03
2023-03-11T09:29:48.669Z,6.25
2023-03-11T09:31:50.112Z,4.60
2023-03-11T09:33:52.870Z,3.22
2023-03-11T09:35:54.300Z,2.58
2023-03-11T09:37:55.914Z,3.15
2023-03-11T09:39:57.388Z,5.38
2023-03-11T09:42:10.815Z,6.95
2023-03-11T09:44:50.420Z,5.70
2023-03-11T09:47:08.744Z,4.43
2023-03-11T09:49:22.318Z,1.52
2023-03-11T09:53:43.833Z,3.42
2023-03-11T09:55:54.981Z,4.20
2023-03-11T09:57:59.260Z,3.47
2023-03-11T10:00:04.379Z,7.00
2023-03-11T10:02:06.309Z,1.45
2023-03-11T10:04:21.147Z,1.35
2023-03-11T10:06:30.510Z,5.40
2023-03-11T10:08:50.733Z,5.03
2023-03-11T10:11:05.403Z,1.70
2023-03-11T10:13:44.990Z,2.00
2023-03-11T10:15:49.543Z,1.50
2023-03-11T10:17:58.105Z,3.55
2023-03-11T10:20:17.972Z,5.13
2023-03-11T10:25:10.331Z,5.93
2023-03-11T10:27:19.868Z,2.67
2023-03-11T10:29:29.218Z,4.22
2023-03-11T10:31:37.254Z,5.30
2023-03-11T10:34:11.226Z,4.32
2023-03-11T10:36:24.194Z,5.22
2023-03-11T10:38:32.363Z,2.95
2023-03-11T10:40:37.373Z,4.55
2023-03-11T10:42:39.312Z,3.55
2023-03-11T10:44:43.096Z,3.50
2023-03-11T10:46:45.137Z,2.08
2023-03-11T10:48:46.551Z,6.15
2023-03-11T10:51:15.859Z,5.68
2023-03-11T10:53:19.722Z,3.97
2023-03-11T10:55:21.113Z,2.97
2023-03-11T10:57:26.239Z,6.13
2023-03-11T10:59:34.791Z,4.47
2023-03-11T11:01:36.688Z,3.17
2023-03-11T11:03:42.288Z,5.20
2023-03-11T11:05:43.762Z,5.95
2023-03-11T11:07:46.928Z,2.90
2023-03-11T11:10:08.872Z,3.75
2023-03-11T11:12:19.938Z,3.63
2023-03-11T11:14:22.798Z,4.57
2023-03-11T11:16:25.021Z,4.35
2023-03-11T11:18:36.726Z,7.20
2023-03-11T11:20:40.091Z,3.25
2023-03-11T11:22:57.467Z,2.05
2023-03-11T11:24:58.932Z,3.03
2023-03-11T11:27:05.855Z,7.45
2023-03-11T11:29:10.315Z,3.15
2023-03-11T11:31:25.078Z,2.95
2023-03-11T11:33:30.443Z,5.00
2023-03-11T11:35:31.888Z,1.65
2023-03-11T11:37:36.721Z,1.17
2023-03-11T11:39:51.558Z,3.17
2023-03-11T11:41:55.606Z,3.20
2023-03-11T11:44:03.599Z,5.88
2023-03-11T11:46:12.568Z,4.60
2023-03-11T11:48:26.903Z,2.85
2023-03-11T11:50:41.955Z,1.98
2023-03-11T11:52:56.022Z,0.95
2023-03-11T11:55:28.226Z,2.72
2023-03-11T11:57:29.952Z,2.72
2023-03-11T11:59:31.718Z,4.35
2023-03-11T12:01:49.486Z,3.38
2023-03-11T12:04:16.595Z,4.53
2023-03-11T12:06:29.316Z,7.53
2023-03-11T12:08:42.760Z,2.50
2023-03-11T12:13:05.813Z,3.38
2023-03-11T12:15:20.850Z,3.58
2023-03-11T12:17:24.899Z,1.83
2023-03-11T12:19:40.130Z,2.42
2023-03-11T12:22:10.749Z,2.03
2023-03-11T12:24:43.551Z,4.35
2023-03-11T12:26:48.184Z,4.00
2023-03-11T12:29:04.771Z,2.17
2023-03-11T12:31:11.298Z,3.08
2023-03-11T12:33:18.588Z,6.43
2023-03-11T12:35:30.219Z,2.40
2023-03-11T12:37:31.789Z,1.85
2023-03-11T12:39:34.648Z,2.15
2023-03-11T12:41:42.800Z,9.98
2023-03-11T12:43:44.233Z,3.47
2023-03-11T12:45:55.408Z,1.80
2023-03-11T12:48:27.664Z,3.33
2023-03-11T12:50:41.209Z,3.72
2023-03-11T12:52:53.634Z,4.15
2023-03-11T12:54:54.990Z,2.97
2023-03-11T12:57:15.169Z,4.47
2023-03-11T12:59:44.563Z,4.20
2023-03-11T13:02:04.848Z,2.85
2023-03-11T13:04:43.721Z,4.53
2023-03-11T13:07:04.214Z,3.08
2023-03-11T13:09:14.532Z,2.30
2023-03-11T13:11:34.285Z,3.13
2023-03-11T13:13:38.704Z,3.83
2023-03-11T13:15:42.668Z,5.43
2023-03-11T13:18:03.547Z,2.53
2023-03-11T13:20:43.002Z,1.95
2023-03-11T13:23:07.677Z,4.45
2023-03-11T13:25:45.580Z,5.22
2023-03-11T13:27:51.097Z,1.85
2023-03-11T13:30:18.715Z,2.25
2023-03-11T13:32:45.017Z,3.70
2023-03-11T13:35:10.233Z,2.55
2023-03-11T13:37:30.245Z,2.63
2023-03-11T13:39:44.334Z,4.03
2023-03-11T13:41:46.542Z,2.90
2023-03-11T13:43:51.233Z,3.45
2023-03-11T13:46:08.293Z,1.92
2023-03-11T13:48:22.590Z,6.03
2023-03-11T13:50:32.264Z,2.42
2023-03-11T13:52:38.124Z,2.17
2023-03-11T13:54:45.477Z,6.30
2023-03-11T13:56:54.001Z,5.57
2023-03-11T13:59:15.958Z,2.45
2023-03-11T14:01:18.905Z,4.57
2023-03-11T14:03:23.818Z,2.33
2023-03-11T14:05:31.249Z,4.50
2023-03-11T14:07:35.237Z,3.63
2023-03-11T14:09:36.745Z,1.42
2023-03-11T14:11:40.054Z,2.25
2023-03-11T14:13:51.267Z,3.13
2023-03-11T14:16:10.029Z,3.28
2023-03-11T14:18:31.797Z,4.32
2023-03-11T14:20:33.292Z,3.50
2023-03-11T14:22:34.957Z,2.50
2023-03-11T14:24:38.370Z,2.03
2023-03-11T14:26:42.728Z,4.85
2023-03-11T14:28:48.042Z,1.90
2023-03-11T14:31:00.880Z,4.55
2023-03-11T14:33:03.639Z,4.38
2023-03-11T14:35:20.332Z,5.78
2023-03-11T14:37:32.215Z,2.33
2023-03-11T14:39:38.404Z,2.60
2023-03-11T14:41:40.088Z,2.10
2023-03-11T14:43:45.834Z,4.20
2023-03-11T14:45:49.877Z,3.03
2023-03-11T14:48:08.520Z,2.25
2023-03-11T14:50:16.430Z,2.47
2023-03-11T14:52:46.045Z,2.78
2023-03-11T14:54:49.697Z,2.28
2023-03-11T14:57:04.856Z,9.25
2023-03-11T14:59:18.529Z,6.70
2023-03-11T15:01:30.874Z,3.15
2023-03-11T15:03:38.230Z,2.67
2023-03-11T15:05:47.297Z,2.85
2023-03-11T15:07:51.076Z,2.83
2023-03-11T15:09:52.786Z,2.85
2023-03-11T15:11:58.187Z,3.30
2023-03-11T15:14:19.222Z,4.82
2023-03-11T15:16:35.499Z,1.58
2023-03-11T15:18:37.916Z,4.40
2023-03-11T15:20:39.425Z,2.63
2023-03-11T15:22:41.206Z,3.13
2023-03-11T15:24:42.740Z,2.83
2023-03-11T15:27:12.890Z,5.00
2023-03-11T15:29:17.093Z,4.75
2023-03-11T15:31:21.483Z,4.55
2023-03-11T15:33:32.462Z,4.32
2023-03-11T15:35:46.818Z,5.00
2023-03-11T15:37:50.372Z,2.20
2023-03-11T15:39:53.115Z,3.30
2023-03-11T15:41:59.346Z,4.35
2023-03-11T15:44:03.060Z,3.63
2023-03-11T15:46:04.658Z,2.20
2023-03-11T15:48:06.195Z,2.28
2023-03-11T15:50:24.021Z,3.50
2023-03-11T15:52:26.847Z,4.85
2023-03-11T15:54:28.885Z,3.90
2023-03-11T15:56:33.080Z,2.90
2023-03-11T15:58:36.833Z,3.80
2023-03-11T16:00:41.776Z,3.65
2023-03-11T16:02:43.229Z,3.25
2023-03-11T16:04:44.766Z,3.22
2023-03-11T16:06:56.505Z,4.68
2023-03-11T16:09:05.359Z,5.88
2023-03-11T16:11:11.616Z,4.10
2023-03-11T16:13:15.046Z,4.80
2023-03-11T16:15:19.484Z,1.83
2023-03-11T16:17:23.336Z,5.43
2023-03-11T16:19:24.993Z,4.00
2023-03-11T16:21:34.905Z,3.38
2023-03-11T16:23:50.659Z,3.15
2023-03-11T16:26:02.176Z,8.48
2023-03-11T16:28:04.291Z,2.58
2023-03-11T16:30:06.385Z,5.57
2023-03-11T16:32:08.694Z,4.72
2023-03-11T16:34:10.245Z,4.53
2023-03-11T16:36:11.914Z,5.75
2023-03-11T16:38:14.139Z,3.97
2023-03-11T16:40:18.709Z,3.33
2023-03-11T16:42:23.968Z,3.30
2023-03-11T16:44:25.360Z,3.40
2023-03-11T16:46:27.834Z,6.20
2023-03-11T16:48:29.315Z,9.63
2023-03-11T16:50:31.967Z,3.05
2023-03-11T16:52:33.605Z,3.63
2023-03-11T16:54:35.473Z,3.88
2023-03-11T16:56:37.331Z,2.85
2023-03-11T16:58:39.807Z,1.60
2023-03-11T17:00:42.173Z,4.10
2023-03-11T17:02:44.575Z,2.72
2023-03-11T17:04:46.055Z,3.97
2023-03-11T17:06:47.506Z,2.45
2023-03-11T17:08:49.986Z,2.70
2023-03-11T17:10:52.704Z,3.50
2023-03-11T17:12:54.761Z,5.57
2023-03-11T17:14:56.240Z,3.28
2023-03-11T17:16:58.260Z,2.72
2023-03-11T17:19:01.205Z,2.38
2023-03-11T17:21:10.765Z,1.38
2023-03-11T17:23:12.231Z,4.25
2023-03-11T17:25:13.753Z,2.63
2023-03-11T17:27:15.198Z,3.28
2023-03-11T17:29:16.607Z,3.38
2023-03-11T17:31:18.836Z,4.63
2023-03-11T17:33:20.292Z,3.35
2023-03-11T17:35:21.760Z,6.38
2023-03-11T17:37:23.278Z,5.35
2023-03-11T17:39:24.675Z,4.38
2023-03-11T17:41:26.133Z,4.20
2023-03-11T17:43:27.627Z,5.68
2023-03-11T17:45:29.342Z,4.22
2023-03-11T17:47:33.123Z,4.10
2023-03-11T17:49:34.659Z,6.05
2023-03-11T17:51:36.154Z,4.65
2023-03-11T17:53:39.353Z,2.60
2023-03-11T17:55:40.932Z,5.43
2023-03-11T17:57:45.363Z,4.60
2023-03-11T17:59:49.934Z,3.60
2023-03-11T18:01:51.564Z,4.50
2023-03-11T18:03:53.312Z,7.20
2023-03-11T18:06:00.150Z,6.93
2023-03-11T18:08:01.608Z,60.17
2023-03-11T18:10:03.063Z,45.20
2023-03-11T18:12:06.573Z,45.78
2023-03-11T18:14:08.019Z,27.73
2023-03-11T18:16:12.979Z,30.83
2023-03-11T18:18:14.438Z,14.68
2023-03-11T18:20:16.542Z,13.57
2023-03-11T18:22:18.015Z,9.82
2023-03-11T18:24:19.535Z,7.90
2023-03-11T18:26:22.267Z,7.13
2023-03-11T18:28:23.744Z,7.10
2023-03-11T18:30:25.504Z,10.35
2023-03-11T18:32:26.978Z,8.13
2023-03-11T18:34:28.427Z,5.35
2023-03-11T18:36:36.075Z,5.53
2023-03-11T18:38:37.546Z,5.45
2023-03-11T18:40:39.027Z,4.90
2023-03-11T18:42:40.488Z,5.63
2023-03-11T18:44:42.314Z,6.10
2023-03-11T18:46:43.852Z,4.32
2023-03-11T18:48:45.419Z,5.82
2023-03-11T18:50:54.441Z,6.25
2023-03-11T18:52:55.867Z,6.90
2023-03-11T18:54:57.307Z,10.10
2023-03-11T18:56:58.775Z,6.43
2023-03-11T18:59:00.730Z,7.75
2023-03-11T19:01:12.366Z,10.07
2023-03-11T19:03:14.280Z,6.97
2023-03-11T19:05:15.894Z,5.70
2023-03-11T19:07:17.568Z,5.15
2023-03-11T19:09:19.091Z,6.50
2023-03-11T19:11:22.669Z,6.75
2023-03-11T19:13:24.640Z,7.15
2023-03-11T19:15:27.922Z,9.13
2023-03-11T19:17:29.378Z,7.25
2023-03-11T19:19:32.755Z,6.30
2023-03-11T19:21:34.244Z,6.18
2023-03-11T19:23:35.665Z,5.93
2023-03-11T19:25:37.244Z,6.07
2023-03-11T19:27:40.160Z,8.48
2023-03-11T19:29:41.594Z,7.22
2023-03-11T19:31:45.816Z,9.18
2023-03-11T19:33:50.039Z,11.25
2023-03-11T19:35:53.401Z,8.02
2023-03-11T19:37:57.375Z,8.40
2023-03-11T19:39:58.944Z,7.20
2023-03-11T19:42:00.554Z,9.50
2023-03-11T19:44:04.004Z,7.13
2023-03-11T19:46:07.476Z,9.35
2023-03-11T19:48:09.544Z,8.40
2023-03-11T19:50:11.863Z,7.85
2023-03-11T19:52:13.669Z,7.22
2023-03-11T19:54:16.256Z,4.75
2023-03-11T19:56:18.100Z,6.45
2023-03-11T19:58:20.257Z,7.72
2023-03-11T20:00:22.176Z,9.15
2023-03-11T20:02:23.689Z,7.75
2023-03-11T20:04:25.380Z,5.93
2023-03-11T20:06:26.977Z,8.23
2023-03-11T20:08:30.233Z,5.30
2023-03-11T20:10:31.980Z,7.53
2023-03-11T20:12:34.372Z,8.95
2023-03-11T20:14:42.131Z,6.53
2023-03-11T20:16:43.697Z,5.50
2023-03-11T20:18:47.964Z,8.73
2023-03-11T20:20:49.365Z,6.63
2023-03-11T20:22:50.911Z,5.45
2023-03-11T20:24:52.354Z,6.13
2023-03-11T20:26:53.881Z,6.07
2023-03-11T20:28:56.402Z,9.05
2023-03-11T20:30:57.897Z,6.88
2023-03-11T20:32:59.559Z,7.22
2023-03-11T20:35:01.162Z,6.72
2023-03-11T20:37:02.636Z,8.35
2023-03-11T20:39:07.873Z,8.02
2023-03-11T20:41:11.020Z,6.93
2023-03-11T20:43:12.543Z,6.35
2023-03-11T20:45:16.289Z,8.30
2023-03-11T20:47:17.876Z,4.70
2023-03-11T20:49:19.396Z,7.22
2023-03-11T20:51:23.119Z,6.70
2023-03-11T20:53:26.132Z,5.88
2023-03-11T20:55:27.690Z,8.75
2023-03-11T20:57:29.639Z,5.85
2023-03-11T20:59:31.201Z,5.70
2023-03-11T21:01:33.984Z,8.48
2023-03-11T21:03:35.627Z,7.47
2023-03-11T21:05:38.317Z,6.90
2023-03-11T21:07:40.319Z,9.63
2023-03-11T21:09:41.832Z,6.28
2023-03-11T21:11:43.338Z,8.27
2023-03-11T21:13:45.138Z,7.30
2023-03-11T21:15:46.624Z,6.05
2023-03-11T21:17:48.128Z,8.30
2023-03-11T21:19:49.640Z,7.75
2023-03-11T21:21:51.295Z,8.95
2023-03-11T21:23:52.912Z,8.30
2023-03-11T21:26:00.873Z,8.45
2023-03-11T21:28:02.326Z,8.55
2023-03-11T21:30:04.257Z,7.75
2023-03-11T21:32:06.249Z,8.65
2023-03-11T21:34:11.664Z,11.27
2023-03-11T21:36:15.159Z,8.10
2023-03-11T21:38:17.598Z,7.55
2023-03-11T21:40:19.473Z,8.55
2023-03-11T21:42:21.409Z,6.90
2023-03-11T21:44:22.889Z,5.97
2023-03-11T21:46:29.102Z,10.18
2023-03-11T21:48:31.546Z,7.03
2023-03-11T21:50:33.369Z,9.65
2023-03-11T21:52:34.842Z,7.35
2023-03-11T21:54:36.594Z,9.93
2023-03-11T21:56:39.174Z,8.43
2023-03-11T21:58:41.474Z,10.60
2023-03-11T22:00:43.414Z,11.43
2023-03-11T22:02:45.081Z,10.32
2023-03-11T22:04:46.698Z,11.00
2023-03-11T22:06:48.203Z,10.75
2023-03-11T22:08:49.994Z,13.32
2023-03-11T22:10:51.917Z,7.15
2023-03-11T22:12:53.452Z,11.45
2023-03-11T22:14:54.888Z,8.88
2023-03-11T22:16:56.483Z,16.75
2023-03-11T22:18:58.193Z,11.60
2023-03-11T22:21:00.174Z,12.77
2023-03-11T22:23:02.171Z,10.55
2023-03-11T22:25:04.746Z,9.05
2023-03-11T22:27:06.405Z,8.93
2023-03-11T22:29:09.031Z,8.65
2023-03-11T22:31:13.336Z,10.07
2023-03-11T22:33:14.834Z,9.70
2023-03-11T22:35:17.235Z,5.38
2023-03-11T22:37:18.696Z,11.10
2023-03-11T22:39:20.137Z,8.93
2023-03-11T22:41:21.577Z,7.03
2023-03-11T22:43:23.078Z,8.25
2023-03-11T22:45:24.649Z,6.85
2023-03-11T22:47:26.149Z,7.15
2023-03-11T22:49:27.593Z,9.82
2023-03-11T22:51:29.046Z,6.20
2023-03-11T22:53:30.501Z,7.00
2023-03-11T22:55:31.942Z,8.55
2023-03-11T22:57:38.540Z,8.27
2023-03-11T22:59:40.024Z,7.30
2023-03-11T23:01:41.464Z,9.00
2023-03-11T23:03:43.610Z,8.50
2023-03-11T23:05:46.424Z,9.80
2023-03-11T23:07:48.148Z,7.55
2023-03-11T23:09:49.629Z,8.85
2023-03-11T23:11:52.624Z,9.23
2023-03-11T23:13:54.091Z,8.13
2023-03-11T23:15:55.513Z,8.35
2023-03-11T23:17:56.909Z,10.85
2023-03-11T23:19:58.395Z,9.32
2023-03-11T23:21:59.835Z,6.63
2023-03-11T23:24:03.120Z,8.18
2023-03-11T23:26:08.616Z,10.57
2023-03-11T23:28:10.066Z,5.97
2023-03-11T23:30:14.195Z,6.90
2023-03-11T23:32:15.642Z,6.05
2023-03-11T23:34:17.051Z,7.22
2023-03-11T23:36:20.667Z,8.73
2023-03-11T23:38:22.065Z,6.28
2023-03-11T23:40:23.750Z,6.75
2023-03-11T23:42:26.412Z,7.72
2023-03-11T23:44:28.001Z,9.27
2023-03-11T23:46:29.511Z,10.48
2023-03-11T23:48:31.081Z,6.90
2023-03-11T23:50:32.634Z,8.38
2023-03-11T23:52:34.661Z,6.65
2023-03-11T23:54:36.096Z,8.02
2023-03-11T23:56:37.489Z,8.90
2023-03-11T23:58:39.001Z,18.60
